METAR* REPORTS - Stations within 60 miles

(*Meteorological Terminal Aviation Routine weather report)

 

KRDG - Reading, Pennsylvania, USA
Distance from station: SE 19mi, 31km
Updated: Mon, 18-Jan-2021 1:54pm EST
Mostly Cloudy
Mostly Cloudy
 Wind from W
Wind: W 12 mph , 19 km/h, Gust: 23 mph , 37 km/h
Temperature: 45°F , 7°C
Wind Chill: 39°F , 4°C
Dew Point: 25°F , -4°C
Humidity: 46%
Barometer: 29.74 inHg , 1007.1 hPa
Clouds: Mostly Cloudy
Visibility: 10 miles , 16 km
Cloud details: Few Clouds 4000 ft
Partly Cloudy 6500 ft
Mostly Cloudy 10000 ft
2021/01/18 18:54 KRDG 181854Z 27010G20KT 10SM FEW040 SCT065 BKN100 07/M04 A2974 RMK AO2 SLP078 T00671039
KLNS - Lancaster, Pennsylvania, USA
Distance from station: S 33mi, 53km
Updated: Mon, 18-Jan-2021 1:53pm EST
Mostly Cloudy
Mostly Cloudy
 Wind from W
Wind: W 16 mph , 26 km/h
Temperature: 45°F , 7°C
Wind Chill: 38°F , 3°C
Dew Point: 25°F , -4°C
Humidity: 46%
Barometer: 29.77 inHg , 1008.1 hPa
Clouds: Mostly Cloudy
Visibility: 10 miles , 16 km
Cloud details: Few Clouds 4100 ft
Mostly Cloudy 5500 ft
2021/01/18 18:53 KLNS 181853Z 28014KT 10SM FEW041 BKN055 07/M04 A2977 RMK AO2 SLP082 T00671039
 
KSEG - Selinsgrove, Pennsylvania, USA
Distance from station: WNW 39mi, 62km
Updated: Mon, 18-Jan-2021 1:53pm EST
Overcast
Overcast
 Wind from W
Wind: W 9 mph , 15 km/h, Gust: 16 mph , 26 km/h
Temperature: 39°F , 4°C
Wind Chill: 33°F , 1°C
Dew Point: 27°F , -3°C
Humidity: 61%
Barometer: 29.78 inHg , 1008.5 hPa
Clouds: Overcast
Visibility: 10 miles , 16 km
Cloud details: Mostly Cloudy 3600 ft
Overcast 4300 ft
2021/01/18 18:53 KSEG 181853Z AUTO 26008G14KT 220V300 10SM BKN036 OVC043 04/M03 A2978 RMK AO2 SLP088 T00391033
KABE - Allentown, Pennsylvania, USA
Distance from station: E 39mi, 63km
Updated: Mon, 18-Jan-2021 1:51pm EST
Overcast
Overcast
 Wind from W
Wind: W 13 mph , 20 km/h
Temperature: 39°F , 4°C
Wind Chill: 31°F , -1°C
Dew Point: 25°F , -4°C
Humidity: 56%
Barometer: 29.73 inHg , 1006.8 hPa
Clouds: Overcast
Visibility: 10 miles , 16 km
Cloud details: Mostly Cloudy 6000 ft
Overcast 10000 ft
2021/01/18 18:51 KABE 181851Z 28011KT 10SM BKN060 OVC100 04/M04 A2973 RMK AO2 SLP071 T00441044
 
KMDT - Middletown, Pennsylvania, USA
Distance from station: SW 40mi, 65km
Updated: Mon, 18-Jan-2021 1:56pm EST
Mostly Cloudy
Mostly Cloudy
 Wind from W
Wind: W 13 mph , 20 km/h, Gust: 22 mph , 35 km/h
Temperature: 41°F , 5°C
Wind Chill: 34°F , 1°C
Dew Point: 27°F , -3°C
Humidity: 57%
Barometer: 29.78 inHg , 1008.5 hPa
Clouds: Mostly Cloudy
Visibility: 10 miles , 16 km
Cloud details: Few Clouds 4600 ft
Mostly Cloudy 6000 ft
2021/01/18 18:56 KMDT 181856Z 27011G19KT 10SM FEW046 BKN060 05/M03 A2978 RMK AO2 SLP087 T00501033
KPTW - Pottstown, Pennsylvania, USA
Distance from station: SE 42mi, 67km
Updated: Mon, 18-Jan-2021 1:54pm EST
Overcast
Overcast
 Wind from W
Wind: W 12 mph , 19 km/h
Temperature: 41°F , 5°C
Wind Chill: 34°F , 1°C
Dew Point: 25°F , -4°C
Humidity: 53%
Barometer: 29.76 inHg , 1007.8 hPa
Clouds: Overcast
Visibility: 10 miles , 16 km
Cloud details: Partly Cloudy 4300 ft
Mostly Cloudy 5000 ft
Overcast 10000 ft
2021/01/18 18:54 KPTW 181854Z AUTO 27010KT 10SM SCT043 BKN050 OVC100 05/M04 A2976 RMK AO2 SLP078 T00501039
 
KCXY - Harrisburg, Pennsylvania, USA
Distance from station: SW 43mi, 69km
Updated: Mon, 18-Jan-2021 1:56pm EST
Overcast
Overcast
 Wind from W
Wind: W 12 mph , 19 km/h, Gust: 22 mph , 35 km/h
Temperature: 43°F , 6°C
Wind Chill: 37°F , 3°C
Dew Point: 23°F , -5°C
Humidity: 46%
Barometer: 29.79 inHg , 1008.8 hPa
Clouds: Overcast
Visibility: 10 miles , 16 km
Cloud details: Mostly Cloudy 4600 ft
Overcast 6000 ft
2021/01/18 18:56 KCXY 181856Z 28010G19KT 10SM BKN046 OVC060 06/M05 A2979 RMK AO2 SLP090 T00561050
KUKT - Quakertown Arp, Pennsylvania, USA
Distance from station: ESE 44mi, 70km
Updated: Mon, 18-Jan-2021 1:55pm EST
Mostly Cloudy
Mostly Cloudy
 Wind from varies
Wind: varies 5 mph , 7 km/h, Gust: 13 mph , 20 km/h
Temperature: 41°F , 5°C
Wind Chill: 38°F , 3°C
Dew Point: 28°F , -2°C
Humidity: 61%
Barometer: 29.74 inHg , 1007.1 hPa
Clouds: Mostly Cloudy
Visibility: 10 miles , 16 km
Cloud details: Mostly Cloudy 3400 ft
Mostly Cloudy 4400 ft
Mostly Cloudy 5000 ft
2021/01/18 18:55 KUKT 181855Z AUTO VRB04G11KT 10SM BKN034 BKN044 BKN050 05/M02 A2974 RMK A01
 
KMQS - Coatesville, Pennsylvania, USA
Distance from station: SSE 45mi, 72km
Updated: Mon, 18-Jan-2021 1:55pm EST
Overcast
Overcast
 Wind from W
Wind: W 17 mph , 28 km/h
Temperature: 39°F , 4°C
Wind Chill: 30°F , -1°C
Dew Point: 25°F , -4°C
Humidity: 56%
Barometer: 29.77 inHg , 1008.1 hPa
Clouds: Overcast
Visibility: 10 miles , 16 km
Cloud details: Overcast 4700 ft
2021/01/18 18:55 KMQS 181855Z AUTO 28015KT 10SM OVC047 04/M04 A2977 RMK AO2
KMPO - Mt. Pocono, Pennsylvania, USA
Distance from station: NE 57mi, 92km
Updated: Mon, 18-Jan-2021 1:53pm EST
Light snow, Overcast
Light snow, Overcast
 Wind from W
Wind: W 18 mph , 30 km/h
Temperature: 30°F , -1°C
Wind Chill: 18°F , -8°C
Dew Point: 25°F , -4°C
Humidity: 80%
Barometer: 29.65 inHg , 1004.1 hPa
Summary: Light Snow
Clouds: Overcast
Visibility: 9 miles , 14 km
Cloud details: Partly Cloudy 1900 ft
Mostly Cloudy 2600 ft
Overcast 3900 ft
2021/01/18 18:53 KMPO 181853Z AUTO 27016KT 9SM -SN SCT019 BKN026 OVC039 M01/M04 A2965 RMK AO2 SNE04B46 SLP060 P0000 T10061044
 
KAVP - Avoca/Wilkes B., Pennsylvania, USA
Distance from station: NNE 58mi, 93km
Updated: Mon, 18-Jan-2021 1:54pm EST
Light snow, Overcast
Light snow, Overcast
 Wind from WSW
Wind: WSW 9 mph , 15 km/h
Temperature: 37°F , 3°C
Wind Chill: 30°F , -1°C
Dew Point: 27°F , -3°C
Humidity: 65%
Barometer: 29.70 inHg , 1005.8 hPa
Summary: Light Snow
Clouds: Overcast
Visibility: 9 miles , 14 km
Cloud details: Partly Cloudy 2800 ft
Mostly Cloudy 4300 ft
Overcast 5000 ft
2021/01/18 18:54 KAVP 181854Z 24008KT 9SM -SN SCT028 BKN043 OVC050 03/M03 A2970 RMK AO2 SNB47 SLP061 P0000 T00331028
KTHV - York, Pennsylvania, USA
Distance from station: SW 59mi, 94km
Updated: Mon, 18-Jan-2021 1:53pm EST
Overcast
Overcast
 Wind from WNW
Wind: WNW 14 mph , 22 km/h, Gust: 23 mph , 37 km/h
Temperature: 43°F , 6°C
Wind Chill: 36°F , 2°C
Dew Point: 21°F , -6°C
Humidity: 42%
Barometer: 29.79 inHg , 1008.8 hPa
Clouds: Overcast
Visibility: 10 miles , 16 km
Cloud details: Few Clouds 4600 ft
Partly Cloudy 5500 ft
Overcast 8500 ft
2021/01/18 18:53 KTHV 181853Z AUTO 30012G20KT 10SM FEW046 SCT055 OVC085 06/M06 A2979 RMK AO2 SLP093 T00561061
 
KDYL - Doylestown, Pennsylvania, USA
Distance from station: ESE 59mi, 95km
Updated: Mon, 18-Jan-2021 1:54pm EST
Overcast
Overcast
 Wind from W
Wind: W 12 mph , 19 km/h, Gust: 18 mph , 30 km/h
Temperature: 43°F , 6°C
Wind Chill: 37°F , 3°C
Dew Point: 27°F , -3°C
Humidity: 53%
Barometer: 29.73 inHg , 1006.8 hPa
Clouds: Overcast
Visibility: 10 miles , 16 km
Cloud details: Partly Cloudy 3400 ft
Mostly Cloudy 8000 ft
Overcast 10000 ft
2021/01/18 18:54 KDYL 181854Z AUTO 27010G16KT 10SM SCT034 BKN080 OVC100 06/M03 A2973 RMK AO2 SLP072 T00611033
KIPT - Williamsport, Pennsylvania, USA
Distance from station: NW 60mi, 96km
Updated: Mon, 18-Jan-2021 1:54pm EST
Overcast
Overcast
 Wind from W
Wind: W 15 mph , 24 km/h
Temperature: 37°F , 3°C
Wind Chill: 28°F , -2°C
Dew Point: 27°F , -3°C
Humidity: 65%
Barometer: 29.75 inHg , 1007.5 hPa
Clouds: Overcast
Visibility: 10 miles , 16 km
Cloud details: Few Clouds 3600 ft
Overcast 4700 ft
2021/01/18 18:54 KIPT 181854Z 26013KT 10SM FEW036 OVC047 03/M03 A2975 RMK AO2 SLP079 T00331033